EDT,Max TemperatureF,Mean TemperatureF,Min TemperatureF,Max Dew PointF,MeanDew PointF,Min DewpointF,Max Humidity, Mean Humidity, Min Humidity, Max Sea Level PressureIn, Mean Sea Level PressureIn, Min Sea Level PressureIn, Max VisibilityMiles, Mean VisibilityMiles, Min VisibilityMiles, Max Wind SpeedMPH, Mean Wind SpeedMPH, Max Gust SpeedMPH,PrecipitationIn, CloudCover, Events, WindDirDegrees
2011-10-1,64,56,48,57,52,42,90,82,72,29.75,29.67,29.59,10,10,3,16,10,25,0.26,7,Rain,341
2011-10-2,64,56,48,52,48,43,97,77,52,29.91,29.80,29.70,10,9,3,14,7,21,0.21,5,Rain,117
2011-10-3,57,50,45,48,45,41,93,80,58,30.06,30.01,29.91,10,9,3,10,2,,0.61,5,Rain,159
2011-10-4,62,55,48,52,49,45,90,82,68,30.03,30.00,29.98,10,10,7,14,8,20,0.00,5,Rain,318
2011-10-5,70,62,50,51,45,31,86,59,34,30.29,30.08,30.00,10,10,10,22,11,29,0.00,0,,322
2011-10-6,64,52,41,45,38,32,89,62,33,30.35,30.31,30.26,10,10,10,13,5,,0.00,0,,306
2011-10-7,64,54,46,45,38,31,83,57,36,30.48,30.43,30.33,10,10,10,8,4,,0.00,0,,12
2011-10-8,75,62,48,58,49,43,90,68,41,30.48,30.44,30.39,10,10,10,9,4,,0.00,0,,295
2011-10-9,81,68,55,61,55,50,90,70,39,30.41,30.34,30.27,10,10,10,9,6,,0.00,0,,306
2011-10-10,80,67,55,60,56,52,90,71,47,30.27,30.20,30.14,10,10,10,8,5,,0.00,0,,301
2011-10-11,71,64,59,57,51,45,78,61,42,30.23,30.17,30.13,10,10,10,13,6,,0.00,3,,75
2011-10-12,60,57,55,52,50,45,88,77,62,30.17,30.10,29.95,10,10,10,13,7,20,0.00,6,Rain,74
2011-10-13,64,62,55,64,60,54,100,93,78,29.93,29.79,29.70,10,3,0,10,7,21,0.55,8,Fog-Rain,75
2011-10-14,69,62,57,67,62,47,100,93,69,29.68,29.52,29.36,10,5,0,14,9,23,0.90,7,Fog-Rain-Thunderstorm,146
2011-10-15,64,58,52,47,41,36,74,56,39,29.75,29.62,29.52,10,10,10,13,7,25,0.00,3,,252
2011-10-16,66,58,53,44,38,35,54,46,40,29.88,29.79,29.65,10,10,10,15,7,24,0.00,4,,231
2011-10-17,64,60,55,50,40,33,80,50,31,29.78,29.72,29.64,10,10,10,15,8,24,0.01,3,Rain,270
2011-10-18,68,57,48,47,41,34,77,56,30,29.90,29.85,29.78,10,10,10,7,3,,0.00,3,Rain,243
2011-10-19,61,58,55,58,56,48,96,89,75,29.88,29.67,29.43,10,5,1,18,9,30,0.62,8,Rain,66
2011-10-20,68,60,53,66,53,39,100,74,48,29.69,29.47,29.35,10,7,0,16,9,24,0.22,5,Fog-Rain,167
2011-10-21,55,52,48,41,39,37,74,61,55,30.00,29.88,29.70,10,10,10,15,7,21,0.00,4,,256
2011-10-22,59,52,46,42,40,39,83,66,48,30.11,30.04,30.00,10,10,10,15,7,18,0.00,3,,290
2011-10-23,57,52,46,42,40,35,86,69,45,30.16,30.12,30.08,10,10,10,7,1,,0.00,4,,321
2011-10-24,59,51,43,48,45,41,97,78,60,30.13,30.05,29.95,10,9,5,9,2,17,0.00,3,,184
2011-10-25,60,52,45,49,38,29,86,58,32,30.05,30.00,29.95,10,10,8,21,9,30,0.00,0,,297
2011-10-26,59,52,44,50,44,34,83,73,58,30.04,29.87,29.74,10,10,10,6,2,,0.01,5,Rain,254
2011-10-27,55,46,35,53,44,32,93,90,83,29.92,29.69,29.61,10,4,1,20,5,26,0.61,8,Rain,6
2011-10-28,48,40,33,32,28,24,86,62,40,30.26,30.17,29.98,10,10,10,17,10,23,0.00,2,,356
2011-10-29,41,37,33,32,29,24,96,78,51,30.24,30.03,29.85,10,4,0,21,8,30,1.10,8,Fog-Snow,20
2011-10-30,46,39,33,31,29,24,92,73,47,30.34,30.11,29.90,10,9,0,22,15,31,0.00,2,Snow,312
2011-10-31,50,38,28,38,33,27,93,79,54,30.41,30.37,30.33,10,10,10,9,4,,0.00,1,,261